sensor_id;sensor_type;location;lat;lon;timestamp;P1;durP1;ratioP1;P2;durP2;ratioP2
48703;SDS011;34502;51.296;16.918;2023-11-21T00:00:21;7.10;;;2.47;;
48703;SDS011;34502;51.296;16.918;2023-11-21T00:02:47;5.07;;;2.78;;
48703;SDS011;34502;51.296;16.918;2023-11-21T00:05:13;5.00;;;3.03;;
48703;SDS011;34502;51.296;16.918;2023-11-21T00:07:41;5.55;;;3.17;;
48703;SDS011;34502;51.296;16.918;2023-11-21T00:10:07;4.45;;;2.90;;
48703;SDS011;34502;51.296;16.918;2023-11-21T00:12:35;4.78;;;2.95;;
48703;SDS011;34502;51.296;16.918;2023-11-21T00:15:02;4.05;;;2.33;;
48703;SDS011;34502;51.296;16.918;2023-11-21T00:17:30;6.90;;;2.72;;
48703;SDS011;34502;51.296;16.918;2023-11-21T00:19:56;3.63;;;2.90;;
48703;SDS011;34502;51.296;16.918;2023-11-21T00:22:22;4.03;;;3.00;;
48703;SDS011;34502;51.296;16.918;2023-11-21T00:24:48;4.50;;;2.92;;
48703;SDS011;34502;51.296;16.918;2023-11-21T00:27:14;8.35;;;3.20;;
48703;SDS011;34502;51.296;16.918;2023-11-21T00:29:42;5.15;;;3.40;;
48703;SDS011;34502;51.296;16.918;2023-11-21T00:32:09;4.32;;;3.10;;
48703;SDS011;34502;51.296;16.918;2023-11-21T00:34:35;4.90;;;3.10;;
48703;SDS011;34502;51.296;16.918;2023-11-21T00:37:01;2.88;;;2.58;;
48703;SDS011;34502;51.296;16.918;2023-11-21T00:39:28;3.47;;;2.53;;
48703;SDS011;34502;51.296;16.918;2023-11-21T00:41:54;5.90;;;2.45;;
48703;SDS011;34502;51.296;16.918;2023-11-21T00:44:20;4.00;;;2.40;;
48703;SDS011;34502;51.296;16.918;2023-11-21T00:46:46;2.67;;;2.30;;
48703;SDS011;34502;51.296;16.918;2023-11-21T00:49:12;2.97;;;2.67;;
48703;SDS011;34502;51.296;16.918;2023-11-21T00:51:38;2.30;;;2.05;;
48703;SDS011;34502;51.296;16.918;2023-11-21T00:54:04;4.07;;;2.00;;
48703;SDS011;34502;51.296;16.918;2023-11-21T00:56:31;2.83;;;2.15;;
48703;SDS011;34502;51.296;16.918;2023-11-21T00:58:59;3.13;;;2.38;;
48703;SDS011;34502;51.296;16.918;2023-11-21T01:01:27;2.20;;;1.75;;
48703;SDS011;34502;51.296;16.918;2023-11-21T01:03:53;6.38;;;2.40;;
48703;SDS011;34502;51.296;16.918;2023-11-21T01:06:19;6.07;;;2.28;;
48703;SDS011;34502;51.296;16.918;2023-11-21T01:08:46;6.78;;;2.63;;
48703;SDS011;34502;51.296;16.918;2023-11-21T01:11:12;2.83;;;2.10;;
48703;SDS011;34502;51.296;16.918;2023-11-21T01:13:38;2.90;;;2.22;;
48703;SDS011;34502;51.296;16.918;2023-11-21T01:16:05;5.38;;;2.35;;
48703;SDS011;34502;51.296;16.918;2023-11-21T01:18:32;5.68;;;2.30;;
48703;SDS011;34502;51.296;16.918;2023-11-21T01:20:58;3.33;;;2.47;;
48703;SDS011;34502;51.296;16.918;2023-11-21T01:23:25;2.97;;;2.28;;
48703;SDS011;34502;51.296;16.918;2023-11-21T01:25:52;2.65;;;1.98;;
48703;SDS011;34502;51.296;16.918;2023-11-21T01:28:20;5.13;;;2.42;;
48703;SDS011;34502;51.296;16.918;2023-11-21T01:30:47;4.68;;;2.38;;
48703;SDS011;34502;51.296;16.918;2023-11-21T01:33:16;6.78;;;2.15;;
48703;SDS011;34502;51.296;16.918;2023-11-21T01:35:43;4.75;;;2.13;;
48703;SDS011;34502;51.296;16.918;2023-11-21T01:38:11;3.00;;;2.28;;
48703;SDS011;34502;51.296;16.918;2023-11-21T01:40:37;2.38;;;2.00;;
48703;SDS011;34502;51.296;16.918;2023-11-21T01:43:03;3.80;;;2.50;;
48703;SDS011;34502;51.296;16.918;2023-11-21T01:45:32;4.45;;;2.80;;
48703;SDS011;34502;51.296;16.918;2023-11-21T01:47:58;2.80;;;2.13;;
48703;SDS011;34502;51.296;16.918;2023-11-21T01:50:26;5.72;;;2.20;;
48703;SDS011;34502;51.296;16.918;2023-11-21T01:52:52;5.90;;;2.17;;
48703;SDS011;34502;51.296;16.918;2023-11-21T01:55:21;4.70;;;2.35;;
48703;SDS011;34502;51.296;16.918;2023-11-21T01:57:47;4.35;;;2.13;;
48703;SDS011;34502;51.296;16.918;2023-11-21T02:00:14;2.78;;;2.17;;
48703;SDS011;34502;51.296;16.918;2023-11-21T02:02:47;4.40;;;1.98;;
48703;SDS011;34502;51.296;16.918;2023-11-21T02:05:17;5.60;;;1.88;;
48703;SDS011;34502;51.296;16.918;2023-11-21T02:07:44;3.05;;;1.58;;
48703;SDS011;34502;51.296;16.918;2023-11-21T02:10:13;3.35;;;1.88;;
48703;SDS011;34502;51.296;16.918;2023-11-21T02:12:43;2.17;;;1.80;;
48703;SDS011;34502;51.296;16.918;2023-11-21T02:15:13;3.30;;;1.63;;
48703;SDS011;34502;51.296;16.918;2023-11-21T02:17:45;4.43;;;2.38;;
48703;SDS011;34502;51.296;16.918;2023-11-21T02:20:15;2.47;;;1.70;;
48703;SDS011;34502;51.296;16.918;2023-11-21T02:22:43;3.58;;;1.98;;
48703;SDS011;34502;51.296;16.918;2023-11-21T02:25:13;2.45;;;1.63;;
48703;SDS011;34502;51.296;16.918;2023-11-21T02:27:42;2.70;;;1.88;;
48703;SDS011;34502;51.296;16.918;2023-11-21T02:30:08;2.58;;;1.50;;
48703;SDS011;34502;51.296;16.918;2023-11-21T02:32:38;3.88;;;1.67;;
48703;SDS011;34502;51.296;16.918;2023-11-21T02:35:05;1.98;;;1.45;;
48703;SDS011;34502;51.296;16.918;2023-11-21T02:37:33;3.92;;;1.83;;
48703;SDS011;34502;51.296;16.918;2023-11-21T02:40:00;1.25;;;1.15;;
48703;SDS011;34502;51.296;16.918;2023-11-21T02:42:29;1.90;;;1.75;;
48703;SDS011;34502;51.296;16.918;2023-11-21T02:44:55;3.90;;;1.90;;
48703;SDS011;34502;51.296;16.918;2023-11-21T02:47:21;3.17;;;1.77;;
48703;SDS011;34502;51.296;16.918;2023-11-21T02:49:48;2.08;;;1.63;;
48703;SDS011;34502;51.296;16.918;2023-11-21T02:52:14;6.50;;;1.92;;
48703;SDS011;34502;51.296;16.918;2023-11-21T02:54:41;2.00;;;1.80;;
48703;SDS011;34502;51.296;16.918;2023-11-21T02:57:07;1.60;;;1.50;;
48703;SDS011;34502;51.296;16.918;2023-11-21T02:59:33;3.40;;;1.77;;
48703;SDS011;34502;51.296;16.918;2023-11-21T03:02:00;2.40;;;2.20;;
48703;SDS011;34502;51.296;16.918;2023-11-21T03:04:26;2.78;;;2.10;;
48703;SDS011;34502;51.296;16.918;2023-11-21T03:06:57;2.42;;;2.08;;
48703;SDS011;34502;51.296;16.918;2023-11-21T03:09:25;2.45;;;1.63;;
48703;SDS011;34502;51.296;16.918;2023-11-21T03:11:53;2.85;;;1.60;;
48703;SDS011;34502;51.296;16.918;2023-11-21T03:14:19;2.08;;;1.35;;
48703;SDS011;34502;51.296;16.918;2023-11-21T03:16:45;3.40;;;1.33;;
48703;SDS011;34502;51.296;16.918;2023-11-21T03:19:12;3.58;;;1.92;;
48703;SDS011;34502;51.296;16.918;2023-11-21T03:21:40;1.77;;;1.58;;
48703;SDS011;34502;51.296;16.918;2023-11-21T03:24:06;2.97;;;1.90;;
48703;SDS011;34502;51.296;16.918;2023-11-21T03:26:32;2.13;;;1.70;;
48703;SDS011;34502;51.296;16.918;2023-11-21T03:28:58;4.60;;;2.10;;
48703;SDS011;34502;51.296;16.918;2023-11-21T03:31:24;3.67;;;2.30;;
48703;SDS011;34502;51.296;16.918;2023-11-21T03:33:51;2.75;;;2.28;;
48703;SDS011;34502;51.296;16.918;2023-11-21T03:36:19;3.08;;;2.45;;
48703;SDS011;34502;51.296;16.918;2023-11-21T03:38:45;2.85;;;2.35;;
48703;SDS011;34502;51.296;16.918;2023-11-21T03:41:13;2.40;;;2.20;;
48703;SDS011;34502;51.296;16.918;2023-11-21T03:43:39;2.40;;;2.20;;
48703;SDS011;34502;51.296;16.918;2023-11-21T03:46:05;4.18;;;2.30;;
48703;SDS011;34502;51.296;16.918;2023-11-21T03:48:34;3.30;;;2.35;;
48703;SDS011;34502;51.296;16.918;2023-11-21T03:51:00;3.50;;;2.38;;
48703;SDS011;34502;51.296;16.918;2023-11-21T03:53:26;4.32;;;2.30;;
48703;SDS011;34502;51.296;16.918;2023-11-21T03:55:53;3.75;;;2.45;;
48703;SDS011;34502;51.296;16.918;2023-11-21T03:58:21;5.75;;;2.78;;
48703;SDS011;34502;51.296;16.918;2023-11-21T04:00:47;3.70;;;2.90;;
48703;SDS011;34502;51.296;16.918;2023-11-21T04:03:16;3.53;;;2.88;;
48703;SDS011;34502;51.296;16.918;2023-11-21T04:05:42;6.82;;;3.10;;
48703;SDS011;34502;51.296;16.918;2023-11-21T04:08:08;3.83;;;3.13;;
48703;SDS011;34502;51.296;16.918;2023-11-21T04:10:34;3.47;;;3.17;;
48703;SDS011;34502;51.296;16.918;2023-11-21T04:13:01;4.10;;;2.85;;
48703;SDS011;34502;51.296;16.918;2023-11-21T04:15:27;3.28;;;2.53;;
48703;SDS011;34502;51.296;16.918;2023-11-21T04:17:55;4.65;;;3.40;;
48703;SDS011;34502;51.296;16.918;2023-11-21T04:20:21;6.65;;;3.00;;
48703;SDS011;34502;51.296;16.918;2023-11-21T04:22:48;7.80;;;3.45;;
48703;SDS011;34502;51.296;16.918;2023-11-21T04:25:17;4.40;;;3.25;;
48703;SDS011;34502;51.296;16.918;2023-11-21T04:27:43;4.97;;;3.10;;
48703;SDS011;34502;51.296;16.918;2023-11-21T04:30:10;2.97;;;2.60;;
48703;SDS011;34502;51.296;16.918;2023-11-21T04:32:37;4.18;;;3.17;;
48703;SDS011;34502;51.296;16.918;2023-11-21T04:35:07;3.67;;;3.13;;
48703;SDS011;34502;51.296;16.918;2023-11-21T04:37:36;6.03;;;2.65;;
48703;SDS011;34502;51.296;16.918;2023-11-21T04:40:02;5.90;;;2.38;;
48703;SDS011;34502;51.296;16.918;2023-11-21T04:42:33;3.85;;;2.30;;
48703;SDS011;34502;51.296;16.918;2023-11-21T04:45:00;4.00;;;2.28;;
48703;SDS011;34502;51.296;16.918;2023-11-21T04:47:30;2.97;;;2.15;;
48703;SDS011;34502;51.296;16.918;2023-11-21T04:49:56;2.30;;;2.10;;
48703;SDS011;34502;51.296;16.918;2023-11-21T04:52:22;4.38;;;2.80;;
48703;SDS011;34502;51.296;16.918;2023-11-21T04:54:49;1.92;;;1.83;;
48703;SDS011;34502;51.296;16.918;2023-11-21T04:57:15;4.10;;;2.72;;
48703;SDS011;34502;51.296;16.918;2023-11-21T04:59:43;2.72;;;2.50;;
48703;SDS011;34502;51.296;16.918;2023-11-21T05:02:09;5.32;;;2.50;;
48703;SDS011;34502;51.296;16.918;2023-11-21T05:04:37;2.97;;;2.40;;
48703;SDS011;34502;51.296;16.918;2023-11-21T05:07:03;2.83;;;2.45;;
48703;SDS011;34502;51.296;16.918;2023-11-21T05:09:32;3.35;;;2.53;;
48703;SDS011;34502;51.296;16.918;2023-11-21T05:11:59;3.05;;;2.47;;
48703;SDS011;34502;51.296;16.918;2023-11-21T05:14:25;3.42;;;2.92;;
48703;SDS011;34502;51.296;16.918;2023-11-21T05:16:51;4.22;;;3.20;;
48703;SDS011;34502;51.296;16.918;2023-11-21T05:19:18;3.28;;;2.97;;
48703;SDS011;34502;51.296;16.918;2023-11-21T05:21:47;4.03;;;3.33;;
48703;SDS011;34502;51.296;16.918;2023-11-21T05:24:13;4.55;;;3.33;;
48703;SDS011;34502;51.296;16.918;2023-11-21T05:26:39;4.53;;;3.45;;
48703;SDS011;34502;51.296;16.918;2023-11-21T05:29:05;2.92;;;2.72;;
48703;SDS011;34502;51.296;16.918;2023-11-21T05:31:31;4.47;;;3.35;;
48703;SDS011;34502;51.296;16.918;2023-11-21T05:33:57;5.00;;;3.38;;
48703;SDS011;34502;51.296;16.918;2023-11-21T05:36:24;3.90;;;3.60;;
48703;SDS011;34502;51.296;16.918;2023-11-21T05:38:52;3.72;;;3.42;;
48703;SDS011;34502;51.296;16.918;2023-11-21T05:41:18;4.70;;;3.85;;
48703;SDS011;34502;51.296;16.918;2023-11-21T05:43:45;5.38;;;4.43;;
48703;SDS011;34502;51.296;16.918;2023-11-21T05:46:11;4.25;;;3.50;;
48703;SDS011;34502;51.296;16.918;2023-11-21T05:48:38;4.13;;;3.70;;
48703;SDS011;34502;51.296;16.918;2023-11-21T05:51:07;7.78;;;3.90;;
48703;SDS011;34502;51.296;16.918;2023-11-21T05:53:33;4.15;;;3.17;;
48703;SDS011;34502;51.296;16.918;2023-11-21T05:56:02;4.35;;;3.13;;
48703;SDS011;34502;51.296;16.918;2023-11-21T05:58:29;5.10;;;3.40;;
48703;SDS011;34502;51.296;16.918;2023-11-21T06:00:55;3.78;;;3.17;;
48703;SDS011;34502;51.296;16.918;2023-11-21T06:03:22;4.47;;;4.07;;
48703;SDS011;34502;51.296;16.918;2023-11-21T06:05:50;3.67;;;3.38;;
48703;SDS011;34502;51.296;16.918;2023-11-21T06:08:19;3.58;;;3.28;;
48703;SDS011;34502;51.296;16.918;2023-11-21T06:10:45;4.80;;;3.67;;
48703;SDS011;34502;51.296;16.918;2023-11-21T06:13:14;5.68;;;3.95;;
48703;SDS011;34502;51.296;16.918;2023-11-21T06:15:40;5.00;;;3.58;;
48703;SDS011;34502;51.296;16.918;2023-11-21T06:18:07;4.57;;;3.40;;
48703;SDS011;34502;51.296;16.918;2023-11-21T06:20:35;3.22;;;2.92;;
48703;SDS011;34502;51.296;16.918;2023-11-21T06:23:02;5.82;;;3.85;;
48703;SDS011;34502;51.296;16.918;2023-11-21T06:25:28;9.25;;;5.30;;
48703;SDS011;34502;51.296;16.918;2023-11-21T06:27:58;4.70;;;4.30;;
48703;SDS011;34502;51.296;16.918;2023-11-21T06:30:26;6.70;;;3.88;;
48703;SDS011;34502;51.296;16.918;2023-11-21T06:32:54;7.25;;;4.63;;
48703;SDS011;34502;51.296;16.918;2023-11-21T06:35:21;4.45;;;4.05;;
48703;SDS011;34502;51.296;16.918;2023-11-21T06:37:47;5.75;;;4.10;;
48703;SDS011;34502;51.296;16.918;2023-11-21T06:40:13;4.90;;;4.30;;
48703;SDS011;34502;51.296;16.918;2023-11-21T06:45:20;7.10;;;3.80;;
48703;SDS011;34502;51.296;16.918;2023-11-21T06:47:46;5.78;;;4.65;;
48703;SDS011;34502;51.296;16.918;2023-11-21T06:50:13;6.47;;;4.32;;
48703;SDS011;34502;51.296;16.918;2023-11-21T06:52:39;7.75;;;4.85;;
48703;SDS011;34502;51.296;16.918;2023-11-21T06:55:06;6.03;;;4.28;;
48703;SDS011;34502;51.296;16.918;2023-11-21T06:57:35;10.95;;;5.13;;
48703;SDS011;34502;51.296;16.918;2023-11-21T07:00:02;6.78;;;4.32;;
48703;SDS011;34502;51.296;16.918;2023-11-21T07:02:28;7.03;;;5.45;;
48703;SDS011;34502;51.296;16.918;2023-11-21T07:04:55;7.68;;;5.10;;
48703;SDS011;34502;51.296;16.918;2023-11-21T07:07:21;9.18;;;6.75;;
48703;SDS011;34502;51.296;16.918;2023-11-21T07:09:47;7.93;;;6.88;;
48703;SDS011;34502;51.296;16.918;2023-11-21T07:12:14;7.95;;;7.10;;
48703;SDS011;34502;51.296;16.918;2023-11-21T07:14:40;9.30;;;7.68;;
48703;SDS011;34502;51.296;16.918;2023-11-21T07:17:08;7.95;;;6.55;;
48703;SDS011;34502;51.296;16.918;2023-11-21T07:19:34;6.95;;;5.53;;
48703;SDS011;34502;51.296;16.918;2023-11-21T07:22:00;10.50;;;6.13;;
48703;SDS011;34502;51.296;16.918;2023-11-21T07:24:27;9.95;;;6.75;;
48703;SDS011;34502;51.296;16.918;2023-11-21T07:26:53;7.80;;;7.00;;
48703;SDS011;34502;51.296;16.918;2023-11-21T07:29:21;6.55;;;5.38;;
48703;SDS011;34502;51.296;16.918;2023-11-21T07:31:48;6.53;;;4.78;;
48703;SDS011;34502;51.296;16.918;2023-11-21T07:34:15;5.47;;;4.22;;
48703;SDS011;34502;51.296;16.918;2023-11-21T07:36:41;6.05;;;3.83;;
48703;SDS011;34502;51.296;16.918;2023-11-21T07:39:17;5.30;;;4.18;;
48703;SDS011;34502;51.296;16.918;2023-11-21T07:41:43;4.75;;;4.28;;
48703;SDS011;34502;51.296;16.918;2023-11-21T07:44:13;4.07;;;3.78;;
48703;SDS011;34502;51.296;16.918;2023-11-21T07:46:40;6.45;;;4.90;;
48703;SDS011;34502;51.296;16.918;2023-11-21T07:49:06;6.43;;;5.43;;
48703;SDS011;34502;51.296;16.918;2023-11-21T07:51:33;9.48;;;7.10;;
48703;SDS011;34502;51.296;16.918;2023-11-21T07:53:59;7.75;;;6.95;;
48703;SDS011;34502;51.296;16.918;2023-11-21T07:56:25;7.35;;;5.25;;
48703;SDS011;34502;51.296;16.918;2023-11-21T07:58:52;13.27;;;9.50;;
48703;SDS011;34502;51.296;16.918;2023-11-21T08:01:18;7.65;;;6.78;;
48703;SDS011;34502;51.296;16.918;2023-11-21T08:03:44;9.60;;;6.30;;
48703;SDS011;34502;51.296;16.918;2023-11-21T08:06:12;10.25;;;5.25;;
48703;SDS011;34502;51.296;16.918;2023-11-21T08:08:38;8.38;;;4.97;;
48703;SDS011;34502;51.296;16.918;2023-11-21T08:11:04;11.50;;;5.07;;
48703;SDS011;34502;51.296;16.918;2023-11-21T08:13:33;4.93;;;3.80;;
48703;SDS011;34502;51.296;16.918;2023-11-21T08:15:59;5.40;;;3.90;;
48703;SDS011;34502;51.296;16.918;2023-11-21T08:18:28;13.48;;;6.50;;
48703;SDS011;34502;51.296;16.918;2023-11-21T08:20:55;15.52;;;8.07;;
48703;SDS011;34502;51.296;16.918;2023-11-21T08:23:21;8.32;;;4.38;;
48703;SDS011;34502;51.296;16.918;2023-11-21T08:25:51;6.15;;;3.85;;
48703;SDS011;34502;51.296;16.918;2023-11-21T08:28:18;9.07;;;4.25;;
48703;SDS011;34502;51.296;16.918;2023-11-21T08:30:44;4.28;;;3.20;;
48703;SDS011;34502;51.296;16.918;2023-11-21T08:33:10;4.22;;;3.83;;
48703;SDS011;34502;51.296;16.918;2023-11-21T08:35:37;10.68;;;5.20;;
48703;SDS011;34502;51.296;16.918;2023-11-21T08:38:03;8.27;;;4.20;;
48703;SDS011;34502;51.296;16.918;2023-11-21T08:40:29;7.75;;;4.50;;
48703;SDS011;34502;51.296;16.918;2023-11-21T08:42:55;7.90;;;4.88;;
48703;SDS011;34502;51.296;16.918;2023-11-21T08:45:23;10.52;;;4.85;;
48703;SDS011;34502;51.296;16.918;2023-11-21T08:47:50;12.57;;;5.75;;
48703;SDS011;34502;51.296;16.918;2023-11-21T08:50:17;12.70;;;6.60;;
48703;SDS011;34502;51.296;16.918;2023-11-21T08:52:44;7.47;;;4.60;;
48703;SDS011;34502;51.296;16.918;2023-11-21T08:55:11;8.88;;;5.00;;
48703;SDS011;34502;51.296;16.918;2023-11-21T08:57:38;13.07;;;7.75;;
48703;SDS011;34502;51.296;16.918;2023-11-21T09:00:08;16.30;;;11.13;;
48703;SDS011;34502;51.296;16.918;2023-11-21T09:02:44;19.08;;;13.52;;
48703;SDS011;34502;51.296;16.918;2023-11-21T09:05:11;19.80;;;14.88;;
48703;SDS011;34502;51.296;16.918;2023-11-21T09:07:39;20.88;;;14.40;;
48703;SDS011;34502;51.296;16.918;2023-11-21T09:10:06;20.73;;;15.68;;
48703;SDS011;34502;51.296;16.918;2023-11-21T09:12:36;22.02;;;15.00;;
48703;SDS011;34502;51.296;16.918;2023-11-21T09:15:03;20.63;;;13.50;;
48703;SDS011;34502;51.296;16.918;2023-11-21T09:17:32;25.75;;;18.42;;
48703;SDS011;34502;51.296;16.918;2023-11-21T09:20:01;27.48;;;19.48;;
48703;SDS011;34502;51.296;16.918;2023-11-21T09:22:30;30.60;;;20.85;;
48703;SDS011;34502;51.296;16.918;2023-11-21T09:24:57;32.90;;;21.92;;
48703;SDS011;34502;51.296;16.918;2023-11-21T09:27:23;32.05;;;21.08;;
48703;SDS011;34502;51.296;16.918;2023-11-21T09:29:52;44.00;;;26.27;;
48703;SDS011;34502;51.296;16.918;2023-11-21T09:32:19;44.05;;;27.85;;
48703;SDS011;34502;51.296;16.918;2023-11-21T09:34:53;33.65;;;24.00;;
48703;SDS011;34502;51.296;16.918;2023-11-21T09:37:23;42.03;;;24.83;;
48703;SDS011;34502;51.296;16.918;2023-11-21T09:39:49;53.15;;;23.88;;
48703;SDS011;34502;51.296;16.918;2023-11-21T09:42:23;34.80;;;23.15;;
48703;SDS011;34502;51.296;16.918;2023-11-21T09:45:03;34.95;;;22.50;;
48703;SDS011;34502;51.296;16.918;2023-11-21T09:47:41;41.25;;;23.15;;
48703;SDS011;34502;51.296;16.918;2023-11-21T09:50:08;37.17;;;23.45;;
48703;SDS011;34502;51.296;16.918;2023-11-21T09:52:42;42.50;;;22.30;;
48703;SDS011;34502;51.296;16.918;2023-11-21T09:55:13;39.63;;;22.13;;
48703;SDS011;34502;51.296;16.918;2023-11-21T09:57:40;37.25;;;24.15;;
48703;SDS011;34502;51.296;16.918;2023-11-21T10:00:07;36.83;;;23.25;;
48703;SDS011;34502;51.296;16.918;2023-11-21T10:02:36;48.78;;;24.85;;
48703;SDS011;34502;51.296;16.918;2023-11-21T10:05:09;50.17;;;24.30;;
48703;SDS011;34502;51.296;16.918;2023-11-21T10:07:40;61.85;;;25.13;;
48703;SDS011;34502;51.296;16.918;2023-11-21T10:10:09;46.35;;;24.33;;
48703;SDS011;34502;51.296;16.918;2023-11-21T10:12:36;46.30;;;23.40;;
48703;SDS011;34502;51.296;16.918;2023-11-21T10:15:03;44.33;;;25.00;;
48703;SDS011;34502;51.296;16.918;2023-11-21T10:17:35;43.10;;;24.20;;
48703;SDS011;34502;51.296;16.918;2023-11-21T10:20:08;35.88;;;24.02;;
48703;SDS011;34502;51.296;16.918;2023-11-21T10:22:40;57.13;;;23.80;;
48703;SDS011;34502;51.296;16.918;2023-11-21T10:25:09;37.13;;;24.10;;
48703;SDS011;34502;51.296;16.918;2023-11-21T10:27:36;43.00;;;23.33;;
48703;SDS011;34502;51.296;16.918;2023-11-21T10:30:05;42.92;;;22.88;;
48703;SDS011;34502;51.296;16.918;2023-11-21T10:32:36;37.30;;;23.73;;
48703;SDS011;34502;51.296;16.918;2023-11-21T10:35:03;46.67;;;22.58;;
48703;SDS011;34502;51.296;16.918;2023-11-21T10:37:38;36.13;;;23.50;;
48703;SDS011;34502;51.296;16.918;2023-11-21T10:40:08;39.50;;;23.48;;
48703;SDS011;34502;51.296;16.918;2023-11-21T10:42:39;58.13;;;23.70;;
48703;SDS011;34502;51.296;16.918;2023-11-21T10:45:06;40.58;;;25.13;;
48703;SDS011;34502;51.296;16.918;2023-11-21T10:47:40;34.40;;;22.02;;
48703;SDS011;34502;51.296;16.918;2023-11-21T10:50:07;39.88;;;22.60;;
48703;SDS011;34502;51.296;16.918;2023-11-21T10:52:40;45.42;;;20.98;;
48703;SDS011;34502;51.296;16.918;2023-11-21T10:55:20;33.95;;;20.75;;
48703;SDS011;34502;51.296;16.918;2023-11-21T10:57:48;37.53;;;22.95;;
48703;SDS011;34502;51.296;16.918;2023-11-21T11:00:16;54.05;;;21.52;;
48703;SDS011;34502;51.296;16.918;2023-11-21T11:02:46;38.25;;;19.77;;
48703;SDS011;34502;51.296;16.918;2023-11-21T11:05:20;30.08;;;18.30;;
48703;SDS011;34502;51.296;16.918;2023-11-21T11:07:50;34.25;;;20.05;;
48703;SDS011;34502;51.296;16.918;2023-11-21T11:10:33;24.15;;;15.15;;
48703;SDS011;34502;51.296;16.918;2023-11-21T11:13:00;23.65;;;15.30;;
48703;SDS011;34502;51.296;16.918;2023-11-21T11:15:26;21.85;;;13.57;;
48703;SDS011;34502;51.296;16.918;2023-11-21T11:17:53;23.05;;;14.90;;
48703;SDS011;34502;51.296;16.918;2023-11-21T11:20:27;20.55;;;13.43;;
48703;SDS011;34502;51.296;16.918;2023-11-21T11:25:48;16.63;;;11.55;;
48703;SDS011;34502;51.296;16.918;2023-11-21T11:31:25;19.27;;;11.07;;
48703;SDS011;34502;51.296;16.918;2023-11-21T11:34:29;15.02;;;10.93;;
48703;SDS011;34502;51.296;16.918;2023-11-21T11:39:40;15.63;;;11.10;;
48703;SDS011;34502;51.296;16.918;2023-11-21T11:42:10;15.25;;;11.15;;
48703;SDS011;34502;51.296;16.918;2023-11-21T11:47:19;20.05;;;12.13;;
48703;SDS011;34502;51.296;16.918;2023-11-21T11:55:36;17.40;;;10.50;;
48703;SDS011;34502;51.296;16.918;2023-11-21T11:58:04;13.98;;;10.30;;
48703;SDS011;34502;51.296;16.918;2023-11-21T12:03:00;15.27;;;10.73;;
48703;SDS011;34502;51.296;16.918;2023-11-21T12:05:28;17.00;;;11.18;;
48703;SDS011;34502;51.296;16.918;2023-11-21T12:08:01;12.63;;;8.23;;
48703;SDS011;34502;51.296;16.918;2023-11-21T12:10:31;11.15;;;7.47;;
48703;SDS011;34502;51.296;16.918;2023-11-21T12:12:59;10.52;;;7.65;;
48703;SDS011;34502;51.296;16.918;2023-11-21T12:15:26;12.57;;;7.80;;
48703;SDS011;34502;51.296;16.918;2023-11-21T12:17:56;12.52;;;8.45;;
48703;SDS011;34502;51.296;16.918;2023-11-21T12:20:27;13.57;;;9.02;;
48703;SDS011;34502;51.296;16.918;2023-11-21T12:22:56;11.63;;;8.40;;
48703;SDS011;34502;51.296;16.918;2023-11-21T12:25:25;9.85;;;8.02;;
48703;SDS011;34502;51.296;16.918;2023-11-21T12:27:57;13.07;;;9.18;;
48703;SDS011;34502;51.296;16.918;2023-11-21T12:30:26;14.93;;;10.07;;
48703;SDS011;34502;51.296;16.918;2023-11-21T12:33:06;15.95;;;11.73;;
48703;SDS011;34502;51.296;16.918;2023-11-21T12:35:34;16.77;;;11.52;;
48703;SDS011;34502;51.296;16.918;2023-11-21T12:38:01;16.33;;;11.95;;
48703;SDS011;34502;51.296;16.918;2023-11-21T12:40:28;14.02;;;10.57;;
48703;SDS011;34502;51.296;16.918;2023-11-21T12:42:57;16.90;;;12.82;;
48703;SDS011;34502;51.296;16.918;2023-11-21T12:45:28;14.60;;;12.55;;
48703;SDS011;34502;51.296;16.918;2023-11-21T12:47:56;17.45;;;13.23;;
48703;SDS011;34502;51.296;16.918;2023-11-21T12:50:36;16.80;;;12.93;;
48703;SDS011;34502;51.296;16.918;2023-11-21T12:55:33;19.40;;;14.07;;
48703;SDS011;34502;51.296;16.918;2023-11-21T12:58:03;19.60;;;13.82;;
48703;SDS011;34502;51.296;16.918;2023-11-21T13:00:36;17.13;;;14.23;;
48703;SDS011;34502;51.296;16.918;2023-11-21T13:03:05;17.63;;;14.80;;
48703;SDS011;34502;51.296;16.918;2023-11-21T13:05:33;19.77;;;13.75;;
48703;SDS011;34502;51.296;16.918;2023-11-21T13:08:03;13.50;;;11.38;;
48703;SDS011;34502;51.296;16.918;2023-11-21T13:10:34;15.45;;;11.00;;
48703;SDS011;34502;51.296;16.918;2023-11-21T13:13:04;17.08;;;13.25;;
48703;SDS011;34502;51.296;16.918;2023-11-21T13:15:34;13.70;;;10.65;;
48703;SDS011;34502;51.296;16.918;2023-11-21T13:18:06;19.63;;;14.48;;
48703;SDS011;34502;51.296;16.918;2023-11-21T13:20:34;24.23;;;16.25;;
48703;SDS011;34502;51.296;16.918;2023-11-21T13:23:06;20.10;;;14.98;;
48703;SDS011;34502;51.296;16.918;2023-11-21T13:25:34;20.58;;;16.33;;
48703;SDS011;34502;51.296;16.918;2023-11-21T13:28:02;21.55;;;17.00;;
48703;SDS011;34502;51.296;16.918;2023-11-21T13:30:28;24.85;;;18.15;;
48703;SDS011;34502;51.296;16.918;2023-11-21T13:33:00;26.85;;;18.77;;
48703;SDS011;34502;51.296;16.918;2023-11-21T13:35:27;22.65;;;18.83;;
48703;SDS011;34502;51.296;16.918;2023-11-21T13:38:04;24.52;;;19.48;;
48703;SDS011;34502;51.296;16.918;2023-11-21T13:40:32;25.30;;;19.58;;
48703;SDS011;34502;51.296;16.918;2023-11-21T13:43:08;25.17;;;20.80;;
48703;SDS011;34502;51.296;16.918;2023-11-21T13:45:38;27.83;;;20.85;;
48703;SDS011;34502;51.296;16.918;2023-11-21T13:48:05;25.42;;;20.77;;
48703;SDS011;34502;51.296;16.918;2023-11-21T13:50:38;27.75;;;21.10;;
48703;SDS011;34502;51.296;16.918;2023-11-21T13:53:11;24.95;;;19.55;;
48703;SDS011;34502;51.296;16.918;2023-11-21T13:55:57;24.35;;;19.52;;
48703;SDS011;34502;51.296;16.918;2023-11-21T13:58:24;29.58;;;22.67;;
48703;SDS011;34502;51.296;16.918;2023-11-21T14:01:09;31.77;;;25.52;;
48703;SDS011;34502;51.296;16.918;2023-11-21T14:03:58;31.65;;;25.38;;
48703;SDS011;34502;51.296;16.918;2023-11-21T14:06:43;32.25;;;26.08;;
48703;SDS011;34502;51.296;16.918;2023-11-21T14:09:23;33.70;;;27.35;;
48703;SDS011;34502;51.296;16.918;2023-11-21T14:11:54;29.38;;;23.92;;
48703;SDS011;34502;51.296;16.918;2023-11-21T14:14:26;27.60;;;23.15;;
48703;SDS011;34502;51.296;16.918;2023-11-21T14:16:55;30.30;;;24.75;;
48703;SDS011;34502;51.296;16.918;2023-11-21T14:19:22;26.30;;;21.58;;
48703;SDS011;34502;51.296;16.918;2023-11-21T14:21:52;25.55;;;21.67;;
48703;SDS011;34502;51.296;16.918;2023-11-21T14:24:18;28.73;;;21.85;;
48703;SDS011;34502;51.296;16.918;2023-11-21T14:26:46;33.70;;;23.23;;
48703;SDS011;34502;51.296;16.918;2023-11-21T14:29:13;32.30;;;24.33;;
48703;SDS011;34502;51.296;16.918;2023-11-21T14:31:45;31.25;;;23.90;;
48703;SDS011;34502;51.296;16.918;2023-11-21T14:34:11;34.95;;;26.73;;
48703;SDS011;34502;51.296;16.918;2023-11-21T14:36:39;38.20;;;27.35;;
48703;SDS011;34502;51.296;16.918;2023-11-21T14:39:06;36.05;;;26.08;;
48703;SDS011;34502;51.296;16.918;2023-11-21T14:41:34;40.17;;;28.00;;
48703;SDS011;34502;51.296;16.918;2023-11-21T14:44:03;38.03;;;28.02;;
48703;SDS011;34502;51.296;16.918;2023-11-21T14:46:32;37.08;;;27.95;;
48703;SDS011;34502;51.296;16.918;2023-11-21T14:49:00;36.38;;;26.35;;
48703;SDS011;34502;51.296;16.918;2023-11-21T14:51:44;34.40;;;24.90;;
48703;SDS011;34502;51.296;16.918;2023-11-21T14:54:31;35.92;;;25.55;;